< < Back
Terminal Aerodrome Forecast


Current Version              Previous Versions:   1  2  3  4  5  6  7  8  9  

Terminal Aerodrome Forecast

491
FTUS42 KTAE 251120
TAFVLD
TAF
KVLD 251120Z 2512/2612 00000KT 6SM BR SCT005
     FM251400 07004KT P6SM SCT050
     FM252100 07006KT P6SM VCTS SCT050CB=

Latest METAR

259
SAUS70 KWBC 260500 RRE
MTRVLD
METAR KVLD 260453Z AUTO 00000KT 10SM FEW018 SCT025 23/23 A3006 RMK AO2
SLP184 T02330228 403330217


USA.gov is the U.S. government's official web portal to all federal, state and local government web resources and services.